createdAt,value
2022-11-06T00:03:04.476Z,96063.00
2022-11-06T00:08:43.032Z,96058.00
2022-11-06T00:14:11.465Z,96065.00
2022-11-06T00:19:39.250Z,96067.00
2022-11-06T00:25:08.156Z,96055.00
2022-11-06T00:30:36.145Z,96053.00
2022-11-06T00:36:07.219Z,96058.00
2022-11-06T00:41:35.162Z,96051.00
2022-11-06T00:47:03.010Z,96042.00
2022-11-06T00:52:31.126Z,96051.00
2022-11-06T00:57:59.131Z,96046.00
2022-11-06T01:03:26.953Z,96056.00
2022-11-06T01:08:55.270Z,96059.00
2022-11-06T01:14:24.830Z,96053.00
2022-11-06T01:19:52.748Z,96049.00
2022-11-06T01:25:20.535Z,96043.00
2022-11-06T01:30:48.250Z,96039.00
2022-11-06T01:36:20.189Z,96035.00
2022-11-06T01:41:51.297Z,96024.00
2022-11-06T01:47:20.720Z,96032.00
2022-11-06T01:52:50.492Z,96015.00
2022-11-06T01:58:21.781Z,96011.00
2022-11-06T02:04:07.195Z,96004.00
2022-11-06T02:09:35.762Z,96004.00
2022-11-06T02:15:45.884Z,95998.00
2022-11-06T02:21:48.381Z,95997.00
2022-11-06T02:27:23.810Z,95986.00
2022-11-06T02:33:07.161Z,95980.00
2022-11-06T02:38:40.622Z,95974.00
2022-11-06T02:44:15.325Z,95975.00
2022-11-06T02:49:44.535Z,95970.00
2022-11-06T02:55:29.580Z,95964.00
2022-11-06T03:01:06.669Z,95963.00
2022-11-06T03:06:43.998Z,95960.00
2022-11-06T03:12:28.236Z,95967.00
2022-11-06T03:18:50.294Z,95956.00
2022-11-06T03:24:44.010Z,95948.00
2022-11-06T03:30:16.678Z,95956.00
2022-11-06T03:35:51.999Z,95939.00
2022-11-06T03:41:49.255Z,95955.00
2022-11-06T03:47:40.876Z,95964.00
2022-11-06T03:53:25.901Z,95960.00
2022-11-06T03:58:56.650Z,95957.00
2022-11-06T04:04:39.100Z,95955.00
2022-11-06T04:10:29.835Z,95959.00
2022-11-06T04:15:58.076Z,95953.00
2022-11-06T04:21:39.347Z,95956.00
2022-11-06T04:27:47.489Z,95950.00
2022-11-06T04:33:45.486Z,95945.00
2022-11-06T04:39:26.271Z,95945.00
2022-11-06T04:45:02.831Z,95939.00
2022-11-06T04:50:34.418Z,95920.00
2022-11-06T04:56:12.878Z,95931.00
2022-11-06T05:01:40.764Z,95916.00
2022-11-06T05:07:13.276Z,95918.00
2022-11-06T05:12:41.127Z,95914.00
2022-11-06T05:18:09.135Z,95915.00
2022-11-06T05:23:38.427Z,95914.00
2022-11-06T05:29:06.529Z,95911.00
2022-11-06T05:34:34.408Z,95903.00
2022-11-06T05:40:02.459Z,95898.00
2022-11-06T05:45:30.319Z,95891.00
2022-11-06T05:51:07.471Z,95901.00
2022-11-06T05:56:35.226Z,95904.00
2022-11-06T06:02:03.078Z,95898.00
2022-11-06T06:07:31.962Z,95888.00
2022-11-06T06:13:00.167Z,95888.00
2022-11-06T06:18:27.922Z,95880.00
2022-11-06T06:23:55.757Z,95877.00
2022-11-06T06:29:23.679Z,95879.00
2022-11-06T06:34:51.463Z,95874.00
2022-11-06T06:40:19.370Z,95861.00
2022-11-06T06:45:47.299Z,95865.00
2022-11-06T06:51:18.436Z,95859.00
2022-11-06T06:56:49.110Z,95858.00
2022-11-06T07:02:16.817Z,95863.00
2022-11-06T07:07:44.583Z,95866.00
2022-11-06T07:13:12.669Z,95851.00
2022-11-06T07:18:41.426Z,95863.00
2022-11-06T07:24:09.439Z,95874.00
2022-11-06T07:29:37.236Z,95858.00
2022-11-06T07:35:06.370Z,95881.00
2022-11-06T07:40:35.319Z,95885.00
2022-11-06T07:46:06.019Z,95876.00
2022-11-06T07:51:35.936Z,95876.00
2022-11-06T07:57:04.101Z,95870.00
2022-11-06T08:02:32.143Z,95868.00
2022-11-06T08:08:01.030Z,95845.00
2022-11-06T08:13:29.037Z,95853.00
2022-11-06T08:18:57.873Z,95841.00
2022-11-06T08:24:25.652Z,95826.00
2022-11-06T08:29:53.524Z,95812.00
2022-11-06T08:35:22.027Z,95811.00
2022-11-06T08:40:53.625Z,95830.00
2022-11-06T08:46:22.083Z,95825.00
2022-11-06T08:51:50.084Z,95815.00
2022-11-06T08:57:18.934Z,95812.00
2022-11-06T09:02:46.721Z,95798.00
2022-11-06T09:08:16.149Z,95802.00
2022-11-06T09:13:44.084Z,95778.00
2022-11-06T09:19:12.037Z,95769.00
2022-11-06T09:25:02.053Z,95769.00
2022-11-06T09:30:32.219Z,95767.00
2022-11-06T09:36:00.653Z,95748.00
2022-11-06T09:41:52.132Z,95741.00
2022-11-06T09:47:27.189Z,95725.00
2022-11-06T09:53:21.428Z,95711.00
2022-11-06T09:58:50.105Z,95707.00
2022-11-06T10:04:42.260Z,95700.00
2022-11-06T10:10:19.821Z,95697.00
2022-11-06T10:15:59.763Z,95698.00
2022-11-06T10:22:00.393Z,95662.00
2022-11-06T10:27:45.602Z,95658.00
2022-11-06T10:33:28.528Z,95643.00
2022-11-06T10:39:00.985Z,95638.00
2022-11-06T10:44:45.665Z,95634.00
2022-11-06T10:50:16.121Z,95625.00
2022-11-06T10:56:25.116Z,95614.00
2022-11-06T11:01:53.098Z,95585.00
2022-11-06T11:07:23.126Z,95580.00
2022-11-06T11:12:54.241Z,95574.00
2022-11-06T11:18:31.756Z,95552.00
2022-11-06T11:24:11.150Z,95525.00
2022-11-06T11:29:48.200Z,95523.00
2022-11-06T11:35:21.149Z,95521.00
2022-11-06T11:40:49.683Z,95513.00
2022-11-06T11:46:20.842Z,95520.00
2022-11-06T11:51:48.761Z,95521.00
2022-11-06T11:57:25.762Z,95508.00
2022-11-06T12:03:06.055Z,95494.00
2022-11-06T12:08:34.294Z,95488.00
2022-11-06T12:14:21.560Z,95474.00
2022-11-06T12:19:55.553Z,95481.00
2022-11-06T12:25:53.858Z,95481.00
2022-11-06T12:31:43.704Z,95475.00
2022-11-06T12:37:27.121Z,95466.00
2022-11-06T12:43:34.964Z,95451.00
2022-11-06T12:49:51.566Z,95463.00
2022-11-06T12:55:34.080Z,95468.00
2022-11-06T13:01:23.478Z,95463.00
2022-11-06T13:07:21.085Z,95465.00
2022-11-06T13:13:15.258Z,95469.00
2022-11-06T13:18:54.410Z,95470.00
2022-11-06T13:24:45.564Z,95460.00
2022-11-06T13:30:18.499Z,95425.00
2022-11-06T13:35:47.142Z,95398.00
2022-11-06T13:41:41.494Z,95412.00
2022-11-06T13:47:15.710Z,95406.00
2022-11-06T13:53:10.577Z,95389.00
2022-11-06T13:58:57.311Z,95379.00
2022-11-06T14:04:37.227Z,95361.00
2022-11-06T14:10:06.520Z,95350.00
2022-11-06T14:15:41.770Z,95364.00
2022-11-06T14:21:37.588Z,95353.00
2022-11-06T14:27:36.838Z,95344.00
2022-11-06T14:33:11.613Z,95355.00
2022-11-06T14:38:40.002Z,95356.00
2022-11-06T14:44:33.987Z,95366.00
2022-11-06T14:50:19.427Z,95369.00
2022-11-06T14:56:10.209Z,95378.00
2022-11-06T15:01:38.437Z,95374.00
2022-11-06T15:07:58.758Z,95365.00
2022-11-06T15:13:24.874Z,95349.00
2022-11-06T15:18:53.326Z,95339.00
2022-11-06T15:24:29.576Z,95334.00
2022-11-06T15:30:02.268Z,95331.00
2022-11-06T15:35:35.247Z,95326.00
2022-11-06T15:41:03.563Z,95321.00
2022-11-06T15:46:31.448Z,95336.00
2022-11-06T15:52:02.415Z,95335.00
2022-11-06T15:57:30.693Z,95345.00
2022-11-06T16:02:59.835Z,95341.00
2022-11-06T16:08:30.460Z,95335.00
2022-11-06T16:13:59.077Z,95339.00
2022-11-06T16:19:31.376Z,95335.00
2022-11-06T16:25:05.394Z,95332.00
2022-11-06T16:30:33.778Z,95341.00
2022-11-06T16:36:13.651Z,95345.00
2022-11-06T16:42:03.410Z,95337.00
2022-11-06T16:47:31.272Z,95348.00
2022-11-06T16:52:59.009Z,95357.00
2022-11-06T16:58:29.631Z,95354.00
2022-11-06T17:04:01.907Z,95348.00
2022-11-06T17:09:35.777Z,95364.00
2022-11-06T17:15:03.784Z,95363.00
2022-11-06T17:20:32.118Z,95360.00
2022-11-06T17:26:10.535Z,95372.00
2022-11-06T17:31:38.496Z,95374.00
2022-11-06T17:37:06.470Z,95376.00
2022-11-06T17:42:34.294Z,95367.00
2022-11-06T17:48:02.708Z,95367.00
2022-11-06T17:53:30.652Z,95375.00
2022-11-06T17:58:58.566Z,95382.00
2022-11-06T18:04:30.718Z,95374.00
2022-11-06T18:09:58.766Z,95374.00
2022-11-06T18:15:27.801Z,95377.00
2022-11-06T18:20:55.926Z,95387.00
2022-11-06T18:26:23.904Z,95380.00
2022-11-06T18:31:51.745Z,95382.00
2022-11-06T18:37:19.631Z,95381.00
2022-11-06T18:42:47.806Z,95388.00
2022-11-06T18:48:19.976Z,95404.00
2022-11-06T18:53:50.321Z,95392.00
2022-11-06T18:59:19.729Z,95400.00
2022-11-06T19:04:48.097Z,95404.00
2022-11-06T19:10:16.530Z,95398.00
2022-11-06T19:15:45.374Z,95410.00
2022-11-06T19:21:14.156Z,95404.00
2022-11-06T19:26:42.603Z,95405.00
2022-11-06T19:32:10.662Z,95409.00
2022-11-06T19:37:38.857Z,95409.00
2022-11-06T19:43:08.433Z,95420.00
2022-11-06T19:48:36.731Z,95420.00
2022-11-06T19:54:09.852Z,95414.00
2022-11-06T19:59:37.913Z,95424.00
2022-11-06T20:05:07.610Z,95437.00
2022-11-06T20:10:36.274Z,95443.00
2022-11-06T20:16:06.725Z,95453.00
2022-11-06T20:21:34.646Z,95464.00
2022-11-06T20:27:04.248Z,95476.00
2022-11-06T20:32:36.018Z,95472.00
2022-11-06T20:38:04.244Z,95481.00
2022-11-06T20:43:32.344Z,95480.00
2022-11-06T20:49:00.116Z,95483.00
2022-11-06T20:54:27.887Z,95484.00
2022-11-06T20:59:55.892Z,95485.00
2022-11-06T21:05:23.954Z,95495.00
2022-11-06T21:11:07.727Z,95491.00
2022-11-06T21:16:49.871Z,95497.00
2022-11-06T21:22:20.967Z,95498.00
2022-11-06T21:27:52.430Z,95501.00
2022-11-06T21:33:24.390Z,95508.00
2022-11-06T21:38:59.881Z,95517.00
2022-11-06T21:44:32.209Z,95522.00
2022-11-06T21:50:03.471Z,95526.00
2022-11-06T21:55:53.812Z,95532.00
2022-11-06T22:01:22.591Z,95560.00
2022-11-06T22:06:52.452Z,95565.00
2022-11-06T22:12:20.479Z,95554.00
2022-11-06T22:17:48.238Z,95567.00
2022-11-06T22:23:16.381Z,95561.00
2022-11-06T22:28:45.212Z,95570.00
2022-11-06T22:34:13.890Z,95566.00
2022-11-06T22:39:41.650Z,95565.00
2022-11-06T22:45:10.215Z,95572.00
2022-11-06T22:50:38.310Z,95577.00
2022-11-06T22:56:08.662Z,95584.00
2022-11-06T23:01:41.970Z,95598.00
2022-11-06T23:07:10.564Z,95582.00
2022-11-06T23:12:38.350Z,95591.00
2022-11-06T23:18:06.671Z,95578.00
2022-11-06T23:23:34.506Z,95585.00
2022-11-06T23:29:02.507Z,95585.00
2022-11-06T23:34:30.339Z,95594.00
2022-11-06T23:39:58.216Z,95598.00
2022-11-06T23:45:44.434Z,95607.00
2022-11-06T23:51:12.229Z,95611.00
2022-11-06T23:56:39.975Z,95611.00
